Time;durP1;ratioP1;P1;durP2;ratioP2;P2;SDS_P1;SDS_P2;PMS_P1;PMS_P2;Temp;Humidity;BMP_temperature;BMP_pressure;BME280_temperature;BME280_humidity;BME280_pressure;Samples;Min_cycle;Max_cycle;Signal;HPM_P1;HPM_P2
2024/03/04 00:00:48;;;;;;;11.50;7.50;;;;;;;1.71;77.34;99995.39;106564;1253;72661;-82
2024/03/04 00:03:15;;;;;;;11.90;7.70;;;;;;;1.69;77.36;99991.66;106110;1254;70364;-79
2024/03/04 00:05:42;;;;;;;10.30;7.00;;;;;;;1.67;77.47;99996.31;105982;1254;72417;-82
2024/03/04 00:08:09;;;;;;;10.70;7.40;;;;;;;1.66;77.25;99994.29;106042;1254;60425;-81
2024/03/04 00:10:36;;;;;;;14.40;8.30;;;;;;;1.64;77.38;99995.15;105967;1253;60482;-78
2024/03/04 00:13:03;;;;;;;14.70;8.10;;;;;;;1.62;77.27;99992.46;106014;1253;73687;-81
2024/03/04 00:15:30;;;;;;;10.10;6.90;;;;;;;1.69;77.09;99987.68;106075;1256;69056;-80
2024/03/04 00:17:57;;;;;;;12.40;7.80;;;;;;;1.79;76.98;99993.27;106120;1257;72152;-80
2024/03/04 00:20:24;;;;;;;15.20;8.70;;;;;;;1.81;76.93;99993.16;106107;1254;60429;-80
2024/03/04 00:22:50;;;;;;;12.40;7.90;;;;;;;1.76;76.91;99990.96;106031;1254;60428;-78
2024/03/04 00:25:17;;;;;;;14.70;9.00;;;;;;;1.74;76.94;99992.89;105947;1257;60402;-78
2024/03/04 00:27:43;;;;;;;12.20;8.50;;;;;;;1.71;76.92;99992.02;106132;1257;68925;-78
2024/03/04 00:30:11;;;;;;;11.70;8.40;;;;;;;1.70;76.79;99983.77;106532;1254;72482;-79
2024/03/04 00:32:38;;;;;;;12.60;7.40;;;;;;;1.66;76.69;99984.70;106450;1254;61115;-78
2024/03/04 00:35:06;;;;;;;15.00;8.10;;;;;;;1.70;76.62;99984.98;106356;1254;60312;-81
2024/03/04 00:37:32;;;;;;;13.00;7.60;;;;;;;1.78;76.55;99989.64;106316;1256;73912;-80
2024/03/04 00:39:59;;;;;;;10.80;7.00;;;;;;;1.81;76.69;99981.27;106127;1256;69063;-80
2024/03/04 00:42:27;;;;;;;10.90;7.70;;;;;;;1.78;76.58;99981.25;106049;1257;71217;-79
2024/03/04 00:44:55;;;;;;;12.30;8.30;;;;;;;1.74;76.57;99986.09;106053;1254;60415;-79
2024/03/04 00:47:21;;;;;;;13.30;8.20;;;;;;;1.70;76.72;99982.86;108210;1253;60296;-74
2024/03/04 00:49:48;;;;;;;12.90;8.90;;;;;;;1.67;76.70;99981.81;108905;1253;59111;-77
2024/03/04 00:52:17;;;;;;;13.00;10.00;;;;;;;1.66;76.75;99981.77;106628;1253;60406;-79
2024/03/04 00:54:44;;;;;;;12.20;8.20;;;;;;;1.65;76.71;99976.37;106505;1254;70583;-78
2024/03/04 00:57:10;;;;;;;12.00;8.20;;;;;;;1.70;76.48;99971.65;107240;1253;60478;-75
2024/03/04 00:59:37;;;;;;;12.50;8.00;;;;;;;1.77;76.45;99971.87;106275;1254;61087;-77
2024/03/04 01:02:07;;;;;;;12.40;9.20;;;;;;;1.77;76.33;99971.34;106627;1254;73761;-78
2024/03/04 01:04:34;;;;;;;15.20;9.00;;;;;;;1.75;76.61;99971.85;106202;1254;70332;-78
2024/03/04 01:07:01;;;;;;;11.50;8.40;;;;;;;1.73;76.88;99970.57;105968;1254;72718;-79
2024/03/04 01:09:28;;;;;;;14.00;9.80;;;;;;;1.73;76.85;99974.45;106069;1254;60339;-79
2024/03/04 01:11:54;;;;;;;14.00;10.30;;;;;;;1.72;76.89;99969.83;106074;1254;60788;-79
2024/03/04 01:14:21;;;;;;;15.30;10.10;;;;;;;1.70;76.73;99971.53;105973;1256;73631;-79
2024/03/04 01:16:49;;;;;;;14.50;9.00;;;;;;;1.69;76.75;99977.54;106117;1254;60511;-79
2024/03/04 01:19:16;;;;;;;13.70;8.60;;;;;;;1.75;76.53;99972.43;105854;1254;72761;-83
2024/03/04 01:21:43;;;;;;;16.20;8.90;;;;;;;1.83;76.22;99973.98;106025;1254;60620;-79
2024/03/04 01:24:10;;;;;;;13.40;9.20;;;;;;;1.82;76.27;99973.86;105936;1254;60588;-77
2024/03/04 01:26:37;;;;;;;14.40;9.50;;;;;;;1.74;76.34;99975.23;106037;1257;73798;-78
2024/03/04 01:29:04;;;;;;;15.80;9.60;;;;;;;1.68;76.47;99973.58;105894;1254;70298;-78
2024/03/04 01:31:30;;;;;;;14.80;9.30;;;;;;;1.64;76.60;99977.20;105934;1257;72490;-78
2024/03/04 01:33:57;;;;;;;16.30;10.10;;;;;;;1.61;76.72;99977.94;106057;1254;60386;-77
2024/03/04 01:36:23;;;;;;;15.60;10.20;;;;;;;1.59;76.68;99978.59;106035;1257;60435;-79
2024/03/04 01:38:50;;;;;;;16.90;9.80;;;;;;;1.57;76.76;99975.21;107981;1253;59333;-78
2024/03/04 01:41:17;;;;;;;17.10;8.40;;;;;;;1.66;76.75;99979.12;108554;1254;60307;-78
2024/03/04 01:43:45;;;;;;;13.60;9.20;;;;;;;1.79;76.36;99982.78;109179;1254;71212;-78
2024/03/04 01:46:11;;;;;;;13.90;9.10;;;;;;;1.81;76.53;99980.17;107535;1253;60395;-76
2024/03/04 01:48:39;;;;;;;14.40;9.10;;;;;;;1.82;76.59;99983.30;105995;1254;60454;-79
2024/03/04 01:51:06;;;;;;;15.30;9.80;;;;;;;1.84;76.56;99984.58;106134;1257;72364;-79
2024/03/04 01:53:33;;;;;;;17.20;9.80;;;;;;;1.83;76.52;99982.33;105805;1254;70334;-78
2024/03/04 01:56:02;;;;;;;17.80;11.40;;;;;;;1.83;76.38;99986.90;105971;1259;72862;-80
2024/03/04 01:58:32;;;;;;;14.70;10.30;;;;;;;1.81;76.23;99987.19;106183;1259;60546;-80
2024/03/04 02:01:01;;;;;;;16.30;10.60;;;;;;;1.79;75.98;99986.81;106077;1254;60555;-79
2024/03/04 02:03:29;;;;;;;17.10;9.70;;;;;;;1.84;75.64;99986.08;106752;1256;73694;-77
2024/03/04 02:05:55;;;;;;;16.30;9.90;;;;;;;1.90;75.31;99992.31;106535;1259;69788;-76
2024/03/04 02:08:22;;;;;;;17.80;11.10;;;;;;;1.87;75.34;99991.63;106584;1254;72694;-77
2024/03/04 02:10:49;;;;;;;15.20;9.80;;;;;;;1.82;75.27;99989.18;106440;1254;60345;-78
2024/03/04 02:13:16;;;;;;;16.70;10.00;;;;;;;1.81;75.34;99990.31;105945;1254;60770;-79
2024/03/04 02:15:43;;;;;;;16.00;11.00;;;;;;;1.80;75.43;99988.11;106275;1254;73666;-77
2024/03/04 02:18:09;;;;;;;18.80;11.20;;;;;;;1.80;75.20;99990.58;105904;1254;70304;-81
2024/03/04 02:20:38;;;;;;;17.00;10.20;;;;;;;1.78;75.16;99987.73;106195;1255;72729;-80
2024/03/04 02:23:07;;;;;;;17.10;9.00;;;;;;;1.77;74.85;99987.63;106233;1254;61225;-79
2024/03/04 02:25:35;;;;;;;14.50;9.00;;;;;;;1.83;74.60;99989.84;106674;1256;59246;-80
2024/03/04 02:28:03;;;;;;;15.20;9.80;;;;;;;1.91;74.30;99993.85;106736;1254;72445;-79
2024/03/04 02:30:31;;;;;;;15.20;8.70;;;;;;;1.91;74.15;99996.42;108573;1254;69067;-80
2024/03/04 02:33:02;;;;;;;13.20;9.70;;;;;;;1.89;74.21;99996.20;106338;1254;72463;-80
2024/03/04 02:35:33;;;;;;;13.90;9.40;;;;;;;1.88;74.21;99996.85;106967;1254;60427;-78
2024/03/04 02:38:03;;;;;;;14.10;8.90;;;;;;;1.87;74.11;100000.38;109239;1254;60235;-79
2024/03/04 02:40:30;;;;;;;14.70;8.80;;;;;;;1.89;73.81;100002.17;108167;1254;72682;-79
2024/03/04 02:42:57;;;;;;;14.40;10.20;;;;;;;1.87;73.63;100001.55;106429;1254;70083;-78
2024/03/04 02:45:24;;;;;;;16.20;9.10;;;;;;;1.86;73.63;100008.65;106298;1253;72478;-79
2024/03/04 02:47:50;;;;;;;14.20;9.20;;;;;;;1.86;73.68;100012.34;106176;1254;60478;-80
2024/03/04 02:50:17;;;;;;;14.90;9.40;;;;;;;1.87;73.58;100009.81;105882;1254;60510;-79
2024/03/04 02:52:44;;;;;;;16.20;8.10;;;;;;;1.96;73.14;100003.25;105918;1258;72868;-79
2024/03/04 02:55:10;;;;;;;13.60;8.40;;;;;;;2.05;72.97;100007.00;106014;1254;70191;-79
2024/03/04 02:57:37;;;;;;;14.70;7.90;;;;;;;2.04;72.97;100004.05;105741;1254;73035;-80
2024/03/04 03:00:06;;;;;;;15.50;9.30;;;;;;;2.04;72.90;100001.45;106128;1254;60585;-80
2024/03/04 03:02:33;;;;;;;16.40;9.30;;;;;;;2.05;72.71;100000.70;106151;1254;60572;-80
2024/03/04 03:05:00;;;;;;;13.90;9.20;;;;;;;2.06;72.71;100002.23;106428;1254;73627;-80
2024/03/04 03:07:27;;;;;;;22.30;9.60;;;;;;;2.09;72.56;99998.35;106621;1254;70347;-76
2024/03/04 03:09:54;;;;;;;15.20;10.00;;;;;;;2.08;72.20;100001.33;106510;1254;71411;-77
2024/03/04 03:12:21;;;;;;;14.60;9.20;;;;;;;2.06;72.08;100002.17;105937;1254;60411;-78
2024/03/04 03:14:48;;;;;;;19.00;8.70;;;;;;;2.04;72.04;99998.84;106390;1254;60540;-76
2024/03/04 03:17:14;;;;;;;24.40;9.50;;;;;;;2.02;71.67;99998.98;106467;1254;73617;-78
2024/03/04 03:22:45;;;;;;;16.40;9.00;;;;;;;2.23;71.50;100003.84;105049;1289;600340;-78
2024/03/04 03:25:13;;;;;;;16.50;9.20;;;;;;;2.23;71.17;99999.27;108721;1266;58033;-77
2024/03/04 03:27:41;;;;;;;14.90;9.20;;;;;;;2.25;71.03;100002.99;108766;1265;58741;-76
2024/03/04 03:30:09;;;;;;;15.80;9.50;;;;;;;2.27;71.01;100001.96;108574;1267;72858;-76
2024/03/04 03:32:37;;;;;;;14.80;8.40;;;;;;;2.28;70.58;100005.02;108436;1269;69077;-78
2024/03/04 03:35:05;;;;;;;14.40;8.80;;;;;;;2.27;70.64;100002.81;108611;1267;73651;-75
2024/03/04 03:37:36;;;;;;;11.80;8.60;;;;;;;2.26;70.42;100006.90;108643;1262;183328;-77
2024/03/04 03:40:04;;;;;;;13.00;8.50;;;;;;;2.24;70.29;100001.27;108598;1262;60083;-75
2024/03/04 03:42:32;;;;;;;14.10;9.40;;;;;;;2.20;70.06;100002.44;108391;1264;71194;-75
2024/03/04 03:45:00;;;;;;;15.50;9.10;;;;;;;2.17;70.10;100002.69;108457;1263;68772;-75
2024/03/04 03:47:29;;;;;;;17.10;9.30;;;;;;;2.14;70.06;100000.73;108579;1263;71449;-76
2024/03/04 03:49:58;;;;;;;14.40;8.10;;;;;;;2.22;69.95;100004.41;108615;1264;59740;-75
2024/03/04 03:52:25;;;;;;;16.90;7.60;;;;;;;2.33;69.87;100005.39;108621;1263;58796;-75
2024/03/04 03:54:53;;;;;;;18.70;9.10;;;;;;;2.35;69.78;100007.49;108647;1263;73729;-76
2024/03/04 03:57:20;;;;;;;17.00;9.70;;;;;;;2.35;69.71;100009.05;108676;1263;68723;-77
2024/03/04 03:59:48;;;;;;;17.30;10.80;;;;;;;2.37;69.85;100010.34;108752;1263;71427;-75
2024/03/04 04:02:15;;;;;;;15.60;9.10;;;;;;;2.40;69.58;100013.45;108725;1265;58211;-76
2024/03/04 04:04:43;;;;;;;18.60;10.20;;;;;;;2.39;69.51;100010.57;108742;1263;58811;-77
2024/03/04 04:07:10;;;;;;;16.10;9.40;;;;;;;2.39;69.61;100016.38;108847;1263;71252;-77
2024/03/04 04:09:38;;;;;;;20.50;9.00;;;;;;;2.38;69.33;100017.98;108818;1264;69643;-79
2024/03/04 04:12:06;;;;;;;17.00;9.70;;;;;;;2.35;69.34;100018.66;108788;1264;71409;-75
2024/03/04 04:14:34;;;;;;;16.40;9.60;;;;;;;2.34;69.20;100019.84;108871;1263;57257;-75
2024/03/04 04:17:02;;;;;;;16.20;10.40;;;;;;;2.31;69.29;100019.14;109058;1259;58856;-77
2024/03/04 04:19:29;;;;;;;16.20;9.90;;;;;;;2.28;69.22;100022.52;108864;1260;71478;-77
2024/03/04 04:21:56;;;;;;;21.20;9.50;;;;;;;2.26;69.26;100020.94;108858;1260;68708;-76
2024/03/04 04:24:24;;;;;;;18.50;9.50;;;;;;;2.26;69.31;100020.58;108992;1260;71126;-74
2024/03/04 04:26:52;;;;;;;14.40;8.30;;;;;;;2.35;69.04;100021.52;108938;1259;59143;-73
2024/03/04 04:29:19;;;;;;;14.60;9.20;;;;;;;2.38;69.07;100022.48;108888;1260;58761;-76
2024/03/04 04:31:47;;;;;;;16.70;10.10;;;;;;;2.37;69.19;100022.75;109001;1260;71242;-75
2024/03/04 04:34:14;;;;;;;17.60;9.70;;;;;;;2.36;69.16;100024.91;108998;1260;67813;-75
2024/03/04 04:36:49;;;;;;;15.40;10.20;;;;;;;2.33;69.07;100026.02;109020;1259;71060;-77
2024/03/04 04:39:17;;;;;;;14.90;9.00;;;;;;;2.29;69.09;100027.38;109019;1260;57974;-77
2024/03/04 04:41:44;;;;;;;14.90;9.20;;;;;;;2.26;69.07;100028.60;108876;1260;58772;-76
2024/03/04 04:44:12;;;;;;;19.20;10.30;;;;;;;2.24;69.21;100028.78;108924;1259;71967;-77
2024/03/04 04:46:39;;;;;;;18.70;10.60;;;;;;;2.21;69.19;100030.04;109356;1252;68860;-78
2024/03/04 04:49:08;;;;;;;19.00;10.20;;;;;;;2.17;69.04;100027.50;109426;1253;71499;-77
2024/03/04 04:51:35;;;;;;;15.50;10.50;;;;;;;2.15;69.18;100030.95;109526;1254;57973;-76
2024/03/04 04:54:03;;;;;;;22.20;11.40;;;;;;;2.12;69.29;100031.49;109422;1253;58928;-76
2024/03/04 04:56:30;;;;;;;19.70;11.10;;;;;;;2.10;69.32;100034.81;109511;1253;70588;-78
2024/03/04 04:58:57;;;;;;;21.30;10.50;;;;;;;2.14;69.45;100036.05;109482;1253;71036;-78
2024/03/04 05:01:28;;;;;;;15.70;10.50;;;;;;;2.25;69.28;100035.84;109430;1253;71409;-76
2024/03/04 05:03:57;;;;;;;21.60;11.50;;;;;;;2.27;69.41;100032.54;109584;1253;57972;-78
2024/03/04 05:06:29;;;;;;;26.10;10.80;;;;;;;2.25;69.36;100040.23;109386;1254;58792;-78
2024/03/04 05:08:57;;;;;;;19.80;10.60;;;;;;;2.23;69.42;100039.30;109550;1253;71874;-77
2024/03/04 05:11:25;;;;;;;18.10;10.30;;;;;;;2.21;69.34;100035.10;109568;1253;68723;-77
2024/03/04 05:13:52;;;;;;;18.50;11.10;;;;;;;2.19;69.44;100040.27;109411;1253;71053;-78
2024/03/04 05:16:20;;;;;;;19.30;11.00;;;;;;;2.16;69.43;100039.23;109494;1252;58312;-78
2024/03/04 05:18:48;;;;;;;18.00;11.00;;;;;;;2.11;69.43;100042.55;109434;1254;58823;-77
2024/03/04 05:21:15;;;;;;;19.80;11.80;;;;;;;2.08;69.67;100037.88;109619;1253;71790;-78
2024/03/04 05:23:43;;;;;;;19.60;11.60;;;;;;;2.06;69.72;100039.23;109613;1253;68729;-78
2024/03/04 05:26:10;;;;;;;24.00;12.70;;;;;;;2.07;69.84;100037.96;109378;1253;71631;-79
2024/03/04 05:28:38;;;;;;;22.10;11.30;;;;;;;2.08;69.76;100039.79;109568;1253;58126;-79
2024/03/04 05:31:05;;;;;;;22.20;10.80;;;;;;;2.13;69.82;100041.05;109585;1253;58706;-78
2024/03/04 05:33:36;;;;;;;18.60;10.00;;;;;;;2.23;69.62;100036.86;109522;1254;73151;-77
2024/03/04 05:36:08;;;;;;;23.00;11.00;;;;;;;2.36;69.54;100041.17;109568;1254;68703;-78
2024/03/04 05:38:36;;;;;;;21.20;12.20;;;;;;;2.42;69.58;100039.37;109401;1254;70231;-76
2024/03/04 05:41:04;;;;;;;20.70;12.70;;;;;;;2.47;69.68;100041.27;109393;1256;57981;-78
2024/03/04 05:43:32;;;;;;;24.10;11.70;;;;;;;2.53;69.55;100038.27;109484;1254;58804;-75
2024/03/04 05:45:59;;;;;;;24.20;12.60;;;;;;;2.60;69.38;100042.11;109510;1254;71766;-76
2024/03/04 05:48:27;;;;;;;27.50;12.70;;;;;;;2.67;69.45;100038.65;109343;1253;69109;-77
2024/03/04 05:50:56;;;;;;;17.80;11.30;;;;;;;2.76;69.47;100042.70;107044;1260;71155;-75
2024/03/04 05:53:25;;;;;;;23.20;11.90;;;;;;;2.83;69.09;100045.75;106663;1254;59768;-77
2024/03/04 05:55:53;;;;;;;20.40;13.20;;;;;;;2.85;68.90;100046.44;106805;1254;59616;-78
2024/03/04 05:58:22;;;;;;;23.50;13.10;;;;;;;2.87;68.69;100050.83;108888;1253;71858;-77
2024/03/04 06:00:50;;;;;;;16.60;11.60;;;;;;;2.88;68.74;100052.53;109275;1253;70025;-74
2024/03/04 06:03:17;;;;;;;22.40;13.90;;;;;;;2.91;68.69;100052.81;109202;1254;71376;-72
2024/03/04 06:05:45;;;;;;;27.80;14.10;;;;;;;2.95;68.48;100053.07;108949;1254;60002;-74
2024/03/04 06:08:14;;;;;;;22.50;12.80;;;;;;;2.97;68.26;100053.95;108755;1256;59732;-73
2024/03/04 06:10:42;;;;;;;21.10;14.50;;;;;;;3.02;68.18;100056.08;106628;1254;73146;-75
2024/03/04 06:13:10;;;;;;;23.80;12.70;;;;;;;3.13;68.25;100055.59;107324;1254;68918;-74
2024/03/04 06:15:37;;;;;;;22.10;13.80;;;;;;;3.28;67.86;100056.60;107014;1255;71392;-72
2024/03/04 06:18:05;;;;;;;29.10;14.40;;;;;;;3.34;67.81;100058.07;107433;1254;59688;-73
2024/03/04 06:20:32;;;;;;;21.10;13.20;;;;;;;3.40;67.49;100054.84;108879;1256;59641;-73
2024/03/04 06:23:00;;;;;;;26.70;13.80;;;;;;;3.43;67.43;100055.70;108990;1253;74752;-72
2024/03/04 06:25:27;;;;;;;23.70;14.50;;;;;;;3.45;67.46;100052.54;108658;1253;68997;-73
2024/03/04 06:27:56;;;;;;;22.00;13.80;;;;;;;3.54;67.55;100052.58;108772;1253;71590;-74
2024/03/04 06:30:24;;;;;;;27.40;14.90;;;;;;;3.65;67.12;100053.85;108943;1253;58210;-73
2024/03/04 06:32:51;;;;;;;27.70;16.80;;;;;;;3.71;66.94;100052.86;108746;1253;58565;-73
2024/03/04 06:35:20;;;;;;;24.90;15.20;;;;;;;3.73;66.68;100061.14;108898;1254;71768;-74
2024/03/04 06:37:47;;;;;;;29.90;15.10;;;;;;;3.72;66.46;100054.53;109031;1254;68812;-74
2024/03/04 06:40:15;;;;;;;27.80;15.20;;;;;;;3.70;66.26;100058.36;108746;1253;71387;-75
2024/03/04 06:42:42;;;;;;;32.20;16.40;;;;;;;3.68;66.36;100051.66;108917;1254;57949;-75
2024/03/04 06:45:10;;;;;;;28.90;16.70;;;;;;;3.67;66.08;100056.31;108796;1254;59031;-77
2024/03/04 06:47:37;;;;;;;23.20;14.30;;;;;;;3.61;66.16;100064.45;108570;1258;71529;-73
2024/03/04 06:50:05;;;;;;;30.50;16.30;;;;;;;3.57;66.12;100069.54;108172;1254;69157;-76
2024/03/04 06:52:33;;;;;;;22.90;15.20;;;;;;;3.51;66.10;100067.30;109232;1254;71410;-76
2024/03/04 06:55:00;;;;;;;27.30;15.60;;;;;;;3.44;66.23;100068.24;109294;1254;57980;-76
2024/03/04 06:57:28;;;;;;;26.70;15.80;;;;;;;3.38;66.41;100065.52;109198;1253;58158;-76
2024/03/04 07:02:24;;;;;;;22.90;15.60;;;;;;;3.46;66.72;100059.63;104867;1295;600113;-74
2024/03/04 07:04:52;;;;;;;24.80;15.30;;;;;;;3.52;66.73;100051.17;106606;1267;59235;-76
2024/03/04 07:07:19;;;;;;;27.10;15.40;;;;;;;3.59;66.74;100052.57;106613;1267;59285;-75
2024/03/04 07:09:45;;;;;;;21.50;14.50;;;;;;;3.67;66.68;100058.06;107270;1266;73122;-76
2024/03/04 07:12:12;;;;;;;26.20;15.00;;;;;;;3.75;66.37;100056.23;106694;1266;70427;-76
2024/03/04 07:14:39;;;;;;;22.60;15.50;;;;;;;3.81;66.05;100053.14;107791;1263;196042;-73
2024/03/04 07:17:05;;;;;;;22.30;15.80;;;;;;;3.86;66.16;100054.86;108546;1257;57953;-75
2024/03/04 07:19:33;;;;;;;22.80;15.20;;;;;;;3.91;65.83;100051.67;108547;1256;60231;-77
2024/03/04 07:22:01;;;;;;;24.90;15.80;;;;;;;3.98;66.02;100051.36;108558;1257;70896;-75
2024/03/04 07:24:28;;;;;;;28.00;15.50;;;;;;;4.08;66.09;100051.11;107241;1257;69397;-75
2024/03/04 07:26:55;;;;;;;21.70;13.90;;;;;;;4.19;65.60;100046.77;107124;1261;71020;-74
2024/03/04 07:29:22;;;;;;;26.70;15.30;;;;;;;4.25;65.51;100051.39;106947;1259;60046;-75
2024/03/04 07:32:04;;;;;;;24.30;16.40;;;;;;;4.33;65.61;100051.60;107256;1257;59711;-76
2024/03/04 07:34:31;;;;;;;27.80;17.50;;;;;;;4.45;65.25;100049.30;106676;1260;72286;-74
2024/03/04 07:36:58;;;;;;;25.60;15.70;;;;;;;4.55;65.33;100046.69;106969;1257;69304;-75
2024/03/04 07:39:25;;;;;;;28.70;16.10;;;;;;;4.67;64.62;100052.98;107542;1258;72635;-75
2024/03/04 07:41:52;;;;;;;32.50;17.10;;;;;;;4.75;64.82;100057.38;106891;1260;60653;-76
2024/03/04 07:44:19;;;;;;;27.90;15.90;;;;;;;4.85;64.43;100055.73;107385;1257;60147;-74
2024/03/04 07:46:47;;;;;;;24.30;16.10;;;;;;;4.96;63.89;100054.52;107172;1261;72180;-74
2024/03/04 07:49:15;;;;;;;30.30;16.80;;;;;;;5.03;63.75;100050.98;106998;1257;70370;-74
2024/03/04 07:51:41;;;;;;;28.70;17.20;;;;;;;5.04;63.22;100053.37;105654;1260;72691;-73
2024/03/04 07:54:08;;;;;;;28.20;17.00;;;;;;;5.00;63.23;100055.39;105568;1259;59935;-73
2024/03/04 07:56:35;;;;;;;31.00;18.20;;;;;;;4.99;63.45;100059.70;105494;1258;60339;-73
2024/03/04 07:59:02;;;;;;;27.90;16.10;;;;;;;5.02;63.29;100057.91;105169;1261;72930;-74
2024/03/04 08:01:29;;;;;;;29.60;16.20;;;;;;;5.04;63.07;100058.05;105588;1254;71543;-75
2024/03/04 08:03:56;;;;;;;26.80;14.90;;;;;;;5.05;63.15;100054.08;105608;1257;72901;-74
2024/03/04 08:06:23;;;;;;;28.40;17.00;;;;;;;5.07;62.83;100055.31;106032;1252;59681;-72
2024/03/04 08:08:50;;;;;;;26.70;17.30;;;;;;;5.10;63.08;100057.90;106164;1255;60254;-72
2024/03/04 08:11:17;;;;;;;24.10;16.30;;;;;;;5.15;62.98;100058.55;106544;1256;74354;-73
2024/03/04 08:13:44;;;;;;;23.90;16.50;;;;;;;5.21;62.88;100057.08;105676;1254;70534;-74
2024/03/04 08:16:11;;;;;;;27.50;16.80;;;;;;;5.31;62.96;100053.41;105851;1256;72690;-72
2024/03/04 08:18:40;;;;;;;29.20;17.50;;;;;;;5.42;62.77;100054.74;105627;1254;59685;-73
2024/03/04 08:21:14;;;;;;;32.00;18.10;;;;;;;5.54;62.66;100047.45;105602;1257;61288;-75
2024/03/04 08:23:40;;;;;;;25.20;18.30;;;;;;;5.69;62.39;100044.98;105549;1257;70905;-73
2024/03/04 08:26:07;;;;;;;26.70;15.90;;;;;;;5.90;62.13;100045.54;105743;1257;69500;-73
2024/03/04 08:28:34;;;;;;;26.80;16.00;;;;;;;6.10;61.44;100044.89;105543;1259;73023;-75
2024/03/04 08:31:04;;;;;;;24.70;16.00;;;;;;;6.26;60.67;100042.43;105658;1254;59705;-75
2024/03/04 08:33:31;;;;;;;22.30;14.60;;;;;;;6.40;60.61;100043.13;105589;1254;59627;-73
2024/03/04 08:35:57;;;;;;;21.60;15.90;;;;;;;6.59;60.27;100044.71;105595;1257;73094;-73
2024/03/04 08:38:26;;;;;;;27.50;16.90;;;;;;;6.75;59.51;100042.23;106048;1254;70414;-74
2024/03/04 08:40:53;;;;;;;23.10;15.70;;;;;;;6.83;59.31;100040.45;106224;1256;73951;-70
2024/03/04 08:43:20;;;;;;;22.10;15.90;;;;;;;6.95;59.12;100039.52;106248;1253;59709;-76
2024/03/04 08:45:48;;;;;;;19.80;15.00;;;;;;;7.12;59.15;100041.53;107115;1254;60698;-77
2024/03/04 08:48:15;;;;;;;23.90;17.00;;;;;;;7.31;58.54;100047.44;108947;1253;71848;-78
2024/03/04 08:50:41;;;;;;;28.60;16.20;;;;;;;7.48;58.00;100049.73;109237;1254;69095;-77
2024/03/04 08:53:08;;;;;;;21.60;15.80;;;;;;;7.61;57.53;100046.61;109250;1253;71451;-77
2024/03/04 08:55:35;;;;;;;19.50;15.40;;;;;;;7.71;57.13;100043.55;109334;1252;58494;-76
2024/03/04 08:58:02;;;;;;;22.20;16.40;;;;;;;7.81;56.85;100046.54;109341;1253;58801;-78
2024/03/04 09:00:29;;;;;;;20.90;15.10;;;;;;;7.92;56.61;100048.31;109383;1253;71245;-77
2024/03/04 09:02:56;;;;;;;23.40;15.40;;;;;;;8.02;55.76;100044.02;109180;1256;68312;-78
2024/03/04 09:05:24;;;;;;;26.00;16.90;;;;;;;8.04;55.99;100037.11;107933;1253;71468;-77
2024/03/04 09:07:51;;;;;;;24.10;16.50;;;;;;;8.11;55.83;100042.50;108456;1256;59550;-78
2024/03/04 09:10:18;;;;;;;26.70;16.30;;;;;;;8.20;55.80;100037.73;109253;1253;60482;-79
2024/03/04 09:12:45;;;;;;;21.30;15.60;;;;;;;8.36;55.38;100036.64;109358;1254;73065;-81
2024/03/04 09:15:15;;;;;;;23.60;13.90;;;;;;;8.53;54.98;100037.86;109471;1254;68647;-80
2024/03/04 09:17:42;;;;;;;23.80;16.80;;;;;;;8.83;54.42;100040.02;109336;1253;71455;-80
2024/03/04 09:20:10;;;;;;;18.40;13.90;;;;;;;9.13;53.77;100037.52;109344;1253;59995;-81
2024/03/04 09:22:38;;;;;;;23.90;16.50;;;;;;;9.38;53.01;100030.06;109340;1252;59021;-81
2024/03/04 09:25:05;;;;;;;18.70;15.30;;;;;;;9.64;52.61;100026.23;109327;1254;71915;-84
2024/03/04 09:27:33;;;;;;;25.10;14.90;;;;;;;9.92;52.63;100032.77;109246;1254;69414;-81
2024/03/04 09:30:00;;;;;;;21.40;15.60;;;;;;;10.37;52.07;100029.05;109389;1254;70467;-80
2024/03/04 09:32:26;;;;;;;17.10;14.50;;;;;;;10.90;51.47;100023.29;109437;1252;58421;-79
2024/03/04 09:34:53;;;;;;;18.70;15.50;;;;;;;11.54;50.16;100031.34;109419;1256;60307;-77
2024/03/04 09:37:21;;;;;;;21.30;16.30;;;;;;;12.02;48.63;100019.34;109470;1254;71883;-79
2024/03/04 09:39:48;;;;;;;22.00;14.80;;;;;;;12.44;47.98;100017.51;109413;1254;70760;-78
2024/03/04 09:42:19;;;;;;;21.40;13.70;;;;;;;12.86;47.23;100020.63;109498;1252;71196;-79
2024/03/04 09:44:46;;;;;;;18.80;15.70;;;;;;;13.33;46.69;100018.86;109177;1253;58986;-79
2024/03/04 09:47:15;;;;;;;22.40;15.30;;;;;;;13.87;45.57;100010.91;109368;1253;59030;-77
2024/03/04 09:49:42;;;;;;;20.40;15.70;;;;;;;14.30;44.77;100008.46;109308;1253;73312;-78
2024/03/04 09:52:09;;;;;;;20.20;15.50;;;;;;;14.59;44.14;100007.97;109546;1252;70175;-81
2024/03/04 09:54:36;;;;;;;18.60;14.70;;;;;;;14.82;43.79;100005.55;109367;1254;71774;-80
2024/03/04 09:57:03;;;;;;;16.80;14.30;;;;;;;15.21;42.77;100009.11;109389;1252;60554;-82
2024/03/04 09:59:34;;;;;;;15.90;14.20;;;;;;;15.49;42.21;100010.80;109470;1253;60406;-82
2024/03/04 10:02:01;;;;;;;16.10;14.00;;;;;;;15.69;42.10;100009.31;109323;1253;71732;-81
2024/03/04 10:04:32;;;;;;;20.30;14.90;;;;;;;15.88;41.41;100003.70;109285;1252;68856;-81
2024/03/04 10:06:59;;;;;;;17.30;13.70;;;;;;;16.17;41.11;100002.91;108998;1254;71308;-80
2024/03/04 10:09:30;;;;;;;16.60;14.10;;;;;;;16.59;40.91;100000.91;107727;1254;59534;-77
2024/03/04 10:11:59;;;;;;;15.10;13.50;;;;;;;17.10;40.33;99996.48;107301;1256;59397;-79
2024/03/04 10:14:29;;;;;;;19.30;15.50;;;;;;;17.59;39.48;99994.27;106856;1258;73681;-79
2024/03/04 10:16:56;;;;;;;15.90;14.20;;;;;;;17.92;38.86;99992.39;106920;1254;69688;-78
2024/03/04 10:19:24;;;;;;;20.30;13.90;;;;;;;18.15;37.92;99994.65;106741;1257;72410;-77
2024/03/04 10:21:51;;;;;;;15.60;13.70;;;;;;;18.14;37.84;99987.13;107388;1254;60478;-82
2024/03/04 10:24:18;;;;;;;15.50;13.20;;;;;;;18.12;37.63;99989.98;106469;1259;59494;-79
2024/03/04 10:26:45;;;;;;;15.90;13.40;;;;;;;18.14;37.69;99987.00;106731;1252;73035;-80
2024/03/04 10:29:15;;;;;;;17.50;13.70;;;;;;;18.30;37.63;99987.89;106316;1257;69078;-78
2024/03/04 10:31:53;;;;;;;21.20;14.00;;;;;;;18.41;37.21;99986.82;106558;1254;74239;-78
2024/03/04 10:34:20;;;;;;;16.10;14.00;;;;;;;18.44;36.77;99988.34;106529;1254;59737;-78
2024/03/04 10:36:56;;;;;;;13.30;11.50;;;;;;;18.25;36.73;99985.48;106419;1259;60215;-78
2024/03/04 10:39:23;;;;;;;18.60;14.20;;;;;;;18.01;37.29;99984.77;106493;1256;71014;-78
2024/03/04 10:41:51;;;;;;;19.20;15.00;;;;;;;18.02;37.41;99982.41;106745;1254;69402;-76
2024/03/04 10:44:25;;;;;;;21.00;14.60;;;;;;;18.09;37.34;99972.33;106636;1254;71930;-78
2024/03/04 10:46:59;;;;;;;18.00;14.40;;;;;;;18.16;37.36;99969.61;107504;1253;60443;-77
2024/03/04 10:49:30;;;;;;;17.10;13.40;;;;;;;18.27;37.17;99967.22;106593;1254;61823;-73
2024/03/04 10:51:57;;;;;;;20.70;14.60;;;;;;;18.37;37.06;99965.98;106404;1258;73010;-79
2024/03/04 10:54:41;;;;;;;15.90;14.00;;;;;;;18.45;37.07;99964.58;106357;1256;70217;-80
2024/03/04 10:57:23;;;;;;;16.50;13.70;;;;;;;18.60;36.91;99961.20;106537;1251;72726;-78
2024/03/04 10:59:50;;;;;;;14.90;12.70;;;;;;;18.63;36.68;99957.73;106201;1252;59841;-79
2024/03/04 11:02:19;;;;;;;15.50;13.90;;;;;;;18.45;36.54;99954.73;106098;1254;59617;-76
2024/03/04 11:04:47;;;;;;;17.10;13.70;;;;;;;18.14;36.89;99958.54;105932;1254;72967;-74
2024/03/04 11:07:16;;;;;;;17.00;13.20;;;;;;;17.77;37.11;99965.77;106379;1254;70243;-75
2024/03/04 11:09:44;;;;;;;17.20;13.40;;;;;;;17.39;37.57;99958.90;106248;1254;72754;-76
2024/03/04 11:12:11;;;;;;;14.00;12.30;;;;;;;17.17;37.79;99953.45;105969;1257;60463;-76
2024/03/04 11:14:41;;;;;;;15.50;13.40;;;;;;;16.99;37.86;99954.06;105862;1254;60457;-75
2024/03/04 11:17:32;;;;;;;15.90;13.10;;;;;;;16.73;38.22;99955.94;105649;1254;74024;-75
2024/03/04 11:20:00;;;;;;;15.60;13.80;;;;;;;16.62;38.43;99955.86;105985;1254;69373;-76
2024/03/04 11:22:27;;;;;;;18.60;13.20;;;;;;;16.57;38.64;99949.86;105775;1254;73907;-75